Time;durP1;ratioP1;P1;durP2;ratioP2;P2;SDS_P1;SDS_P2;PMS_P1;PMS_P2;Temp;Humidity;BMP_temperature;BMP_pressure;BME280_temperature;BME280_humidity;BME280_pressure;Samples;Min_cycle;Max_cycle;Signal;HPM_P1;HPM_P2
2023/02/04 00:02:19;;;;;;;;;;;;;;;;;;4972994;28;19929;-82
2023/02/04 00:04:45;;;;;;;;;;;;;;;;;;4953558;28;20600;-79
2023/02/04 00:07:11;;;;;;;;;;;;;;;;;;4959028;28;19918;-83
2023/02/04 00:09:38;;;;;;;;;;;;;;;;;;4953570;28;20412;-84
2023/02/04 00:12:04;;;;;;;;;;;;;;;;;;4954446;28;19928;-83
2023/02/04 00:14:30;;;;;;;;;;;;;;;;;;4951943;28;19929;-83
2023/02/04 00:16:56;;;;;;;;;;;;;;;;;;4897954;28;2003099;-84
2023/02/04 00:19:23;;;;;;;;;;;;;;;;;;4974837;28;19957;-83
2023/02/04 00:21:49;;;;;;;;;;;;;;;;;;4975329;28;19925;-84
2023/02/04 00:24:15;;;;;;;;;;;;;;;;;;4983976;28;20392;-84
2023/02/04 00:26:41;;;;;;;;;;;;;;;;;;4992852;28;19918;-85
2023/02/04 00:29:08;;;;;;;;;;;;;;;;;;4982365;28;19922;-84
2023/02/04 00:31:34;;;;;;;;;;;;;;;;;;4992138;28;20003;-84
2023/02/04 00:34:00;;;;;;;;;;;;;;;;;;4970622;28;20373;-84
2023/02/04 00:36:26;;;;;;;;;;;;;;;;;;4969470;28;19929;-84
2023/02/04 00:38:53;;;;;;;;;;;;;;;;;;4972943;28;19932;-84
2023/02/04 00:41:19;;;;;;;;;;;;;;;;;;4991723;28;19918;-85
2023/02/04 00:43:45;;;;;;;;;;;;;;;;;;4988551;28;19930;-86
2023/02/04 00:46:11;;;;;;;;;;;;;;;;;;4973264;28;20312;-83
2023/02/04 00:48:37;;;;;;;;;;;;;;;;;;4974989;28;19922;-83
2023/02/04 00:51:04;;;;;;;;;;;;;;;;;;4974718;28;19922;-83
2023/02/04 00:53:30;;;;;;;;;;;;;;;;;;4972167;28;19921;-83
2023/02/04 00:55:56;;;;;;;;;;;;;;;;;;4966078;28;19918;-86
2023/02/04 00:58:22;;;;;;;;;;;;;;;;;;4969458;28;19942;-85
2023/02/04 01:00:49;;;;;;;;;;;;;;;;;;4968385;28;20373;-85
2023/02/04 01:03:15;;;;;;;;;;;;;;;;;;4989121;28;19934;-85
2023/02/04 01:05:41;;;;;;;;;;;;;;;;;;4986121;28;19918;-85
2023/02/04 01:08:07;;;;;;;;;;;;;;;;;;4988389;28;19963;-85
2023/02/04 01:10:34;;;;;;;;;;;;;;;;;;4993071;28;19925;-84
2023/02/04 01:13:00;;;;;;;;;;;;;;;;;;4994798;28;19988;-85
2023/02/04 01:15:26;;;;;;;;;;;;;;;;;;4976079;28;20424;-84
2023/02/04 01:17:53;;;;;;;;;;;;;;;;;;4991821;28;19926;-84
2023/02/04 01:20:19;;;;;;;;;;;;;;;;;;4975763;28;20954;-83
2023/02/04 01:22:45;;;;;;;;;;;;;;;;;;4995201;28;19926;-83
2023/02/04 01:25:11;;;;;;;;;;;;;;;;;;4974955;28;20020;-83
2023/02/04 01:27:38;;;;;;;;;;;;;;;;;;4970870;28;19961;-81
2023/02/04 01:30:04;;;;;;;;;;;;;;;;;;4975878;28;19975;-83
2023/02/04 01:32:30;;;;;;;;;;;;;;;;;;4992643;28;19918;-84
2023/02/04 01:34:56;;;;;;;;;;;;;;;;;;4978868;28;19921;-83
2023/02/04 01:37:23;;;;;;;;;;;;;;;;;;4970544;28;19923;-82
2023/02/04 01:39:49;;;;;;;;;;;;;;;;;;4999043;28;19922;-84
2023/02/04 01:42:15;;;;;;;;;;;;;;;;;;4993694;28;19926;-83
2023/02/04 01:44:41;;;;;;;;;;;;;;;;;;4998104;28;20049;-83
2023/02/04 01:47:08;;;;;;;;;;;;;;;;;;4975246;28;19918;-82
2023/02/04 01:49:34;;;;;;;;;;;;;;;;;;4984159;28;20381;-82
2023/02/04 01:52:00;;;;;;;;;;;;;;;;;;4995423;28;19922;-83
2023/02/04 01:54:26;;;;;;;;;;;;;;;;;;4980818;28;19921;-83
2023/02/04 01:56:54;;;;;;;;;;;;;;;;;;4984418;28;19921;-83
2023/02/04 01:59:20;;;;;;;;;;;;;;;;;;4962286;28;19930;-83
2023/02/04 02:01:46;;;;;;;;;;;;;;;;;;4982446;28;19925;-84
2023/02/04 02:04:12;;;;;;;;;;;;;;;;;;4997070;28;19929;-84
2023/02/04 02:06:39;;;;;;;;;;;;;;;;;;4977328;28;19921;-83
2023/02/04 02:09:05;;;;;;;;;;;;;;;;;;4981777;28;19929;-83
2023/02/04 02:11:31;;;;;;;;;;;;;;;;;;4976917;28;19996;-84
2023/02/04 02:13:57;;;;;;;;;;;;;;;;;;4995706;28;19928;-83
2023/02/04 02:16:23;;;;;;;;;;;;;;;;;;4978575;28;19929;-84
2023/02/04 02:18:53;;;;;;;;;;;;;;;;;;4999059;28;20000;-85
2023/02/04 02:21:19;;;;;;;;;;;;;;;;;;4978075;28;19922;-84
2023/02/04 02:23:45;;;;;;;;;;;;;;;;;;4979841;28;19930;-84
2023/02/04 02:26:11;;;;;;;;;;;;;;;;;;4981646;28;20041;-84
2023/02/04 02:28:38;;;;;;;;;;;;;;;;;;4979007;28;19917;-86
2023/02/04 02:31:04;;;;;;;;;;;;;;;;;;4993140;28;20451;-84
2023/02/04 02:33:30;;;;;;;;;;;;;;;;;;4984098;28;19918;-84
2023/02/04 02:35:56;;;;;;;;;;;;;;;;;;4979645;28;19922;-82
2023/02/04 02:38:23;;;;;;;;;;;;;;;;;;4977545;28;21461;-82
2023/02/04 02:40:50;;;;;;;;;;;;;;;;;;4997819;28;19921;-82
2023/02/04 02:43:16;;;;;;;;;;;;;;;;;;4976880;28;19991;-82
2023/02/04 02:45:42;;;;;;;;;;;;;;;;;;4974318;28;20000;-82
2023/02/04 02:48:08;;;;;;;;;;;;;;;;;;4977268;28;21229;-83
2023/02/04 02:50:34;;;;;;;;;;;;;;;;;;4979434;28;19922;-82
2023/02/04 02:53:03;;;;;;;;;;;;;;;;;;4992069;28;19932;-82
2023/02/04 02:55:29;;;;;;;;;;;;;;;;;;4995135;28;19971;-82
2023/02/04 02:57:55;;;;;;;;;;;;;;;;;;4996568;28;19925;-83
2023/02/04 03:00:22;;;;;;;;;;;;;;;;;;4995139;28;19934;-83
2023/02/04 03:02:49;;;;;;;;;;;;;;;;;;4979388;28;19922;-83
2023/02/04 03:05:15;;;;;;;;;;;;;;;;;;4975364;28;19929;-82
2023/02/04 03:07:41;;;;;;;;;;;;;;;;;;4976786;28;19949;-83
2023/02/04 03:10:07;;;;;;;;;;;;;;;;;;4995957;28;19976;-83
2023/02/04 03:12:34;;;;;;;;;;;;;;;;;;4972611;28;20401;-82
2023/02/04 03:15:00;;;;;;;;;;;;;;;;;;4996857;28;19944;-82
2023/02/04 03:17:26;;;;;;;;;;;;;;;;;;4998941;28;20010;-82
2023/02/04 03:19:52;;;;;;;;;;;;;;;;;;4976675;28;19938;-83
2023/02/04 03:22:18;;;;;;;;;;;;;;;;;;4997929;28;19945;-83
2023/02/04 03:24:45;;;;;;;;;;;;;;;;;;4980334;28;20296;-84
2023/02/04 03:27:11;;;;;;;;;;;;;;;;;;4976659;28;19936;-81
2023/02/04 03:29:37;;;;;;;;;;;;;;;;;;4966995;28;20393;-82
2023/02/04 03:32:06;;;;;;;;;;;;;;;;;;4996642;28;19917;-80
2023/02/04 03:34:32;;;;;;;;;;;;;;;;;;4994917;28;19929;-83
2023/02/04 03:36:58;;;;;;;;;;;;;;;;;;4979753;28;20008;-83
2023/02/04 03:39:24;;;;;;;;;;;;;;;;;;4979023;28;20008;-84
2023/02/04 03:41:51;;;;;;;;;;;;;;;;;;4979037;28;19929;-83
2023/02/04 03:44:17;;;;;;;;;;;;;;;;;;4970229;28;19972;-82
2023/02/04 03:46:43;;;;;;;;;;;;;;;;;;4978107;28;19918;-83
2023/02/04 03:49:10;;;;;;;;;;;;;;;;;;4979659;28;19918;-82
2023/02/04 03:51:36;;;;;;;;;;;;;;;;;;4975178;28;19925;-83
2023/02/04 03:54:02;;;;;;;;;;;;;;;;;;4998384;28;19924;-82
2023/02/04 03:56:29;;;;;;;;;;;;;;;;;;4997073;28;20031;-83
2023/02/04 03:58:55;;;;;;;;;;;;;;;;;;4984708;28;19917;-84
2023/02/04 04:01:21;;;;;;;;;;;;;;;;;;4967332;28;19921;-84
2023/02/04 04:03:48;;;;;;;;;;;;;;;;;;4976170;28;19937;-83
2023/02/04 04:06:14;;;;;;;;;;;;;;;;;;4993232;28;19921;-82
2023/02/04 04:08:40;;;;;;;;;;;;;;;;;;4977250;28;20404;-86
2023/02/04 04:11:06;;;;;;;;;;;;;;;;;;4992729;28;19928;-83
2023/02/04 04:13:33;;;;;;;;;;;;;;;;;;4976487;28;20005;-82
2023/02/04 04:15:59;;;;;;;;;;;;;;;;;;4977604;28;19932;-83
2023/02/04 04:18:25;;;;;;;;;;;;;;;;;;4976239;28;19995;-84
2023/02/04 04:20:52;;;;;;;;;;;;;;;;;;4977328;28;19918;-84
2023/02/04 04:23:18;;;;;;;;;;;;;;;;;;4977469;28;19937;-84
2023/02/04 04:25:44;;;;;;;;;;;;;;;;;;4999393;28;19961;-84
2023/02/04 04:28:10;;;;;;;;;;;;;;;;;;4972257;28;19945;-82
2023/02/04 04:30:36;;;;;;;;;;;;;;;;;;4989748;28;20464;-82
2023/02/04 04:33:03;;;;;;;;;;;;;;;;;;4978192;28;20554;-85
2023/02/04 04:35:29;;;;;;;;;;;;;;;;;;4973611;28;19929;-83
2023/02/04 04:37:55;;;;;;;;;;;;;;;;;;4994254;28;19925;-84
2023/02/04 04:40:21;;;;;;;;;;;;;;;;;;4978620;28;19918;-84
2023/02/04 04:42:48;;;;;;;;;;;;;;;;;;4981798;28;20655;-85
2023/02/04 04:45:14;;;;;;;;;;;;;;;;;;4976313;28;19924;-83
2023/02/04 04:47:40;;;;;;;;;;;;;;;;;;4976144;28;19976;-83
2023/02/04 04:50:06;;;;;;;;;;;;;;;;;;4972460;28;20008;-84
2023/02/04 04:52:33;;;;;;;;;;;;;;;;;;4974088;28;19999;-84
2023/02/04 04:54:59;;;;;;;;;;;;;;;;;;4975629;28;19922;-84
2023/02/04 04:57:25;;;;;;;;;;;;;;;;;;4969760;28;19922;-84
2023/02/04 04:59:51;;;;;;;;;;;;;;;;;;4971823;28;19929;-84
2023/02/04 05:02:17;;;;;;;;;;;;;;;;;;4972632;28;19918;-83
2023/02/04 05:04:44;;;;;;;;;;;;;;;;;;4988858;28;19926;-83
2023/02/04 05:07:10;;;;;;;;;;;;;;;;;;4975042;28;19921;-83
2023/02/04 05:09:36;;;;;;;;;;;;;;;;;;4972408;28;19972;-83
2023/02/04 05:12:02;;;;;;;;;;;;;;;;;;4989124;28;20338;-83
2023/02/04 05:14:29;;;;;;;;;;;;;;;;;;4974187;28;20566;-83
2023/02/04 05:16:55;;;;;;;;;;;;;;;;;;4972034;28;19969;-83
2023/02/04 05:19:21;;;;;;;;;;;;;;;;;;4987417;28;19965;-83
2023/02/04 05:21:47;;;;;;;;;;;;;;;;;;4987411;28;20419;-83
2023/02/04 05:24:14;;;;;;;;;;;;;;;;;;4968439;28;19926;-85
2023/02/04 05:26:40;;;;;;;;;;;;;;;;;;4995978;28;19929;-83
2023/02/04 05:29:06;;;;;;;;;;;;;;;;;;4978059;28;19928;-85
2023/02/04 05:31:33;;;;;;;;;;;;;;;;;;4996791;28;20019;-86
2023/02/04 05:33:59;;;;;;;;;;;;;;;;;;4973402;28;20380;-85
2023/02/04 05:36:25;;;;;;;;;;;;;;;;;;4977593;28;20029;-87
2023/02/04 05:38:51;;;;;;;;;;;;;;;;;;4974628;28;19936;-86
2023/02/04 05:41:18;;;;;;;;;;;;;;;;;;4974629;28;19940;-84
2023/02/04 05:43:44;;;;;;;;;;;;;;;;;;4992543;28;19980;-84
2023/02/04 05:46:10;;;;;;;;;;;;;;;;;;4974362;28;20694;-85
2023/02/04 05:48:38;;;;;;;;;;;;;;;;;;4966943;28;20655;-84
2023/02/04 05:51:05;;;;;;;;;;;;;;;;;;4973886;28;19943;-81
2023/02/04 05:53:31;;;;;;;;;;;;;;;;;;4993838;28;20346;-84
2023/02/04 05:55:57;;;;;;;;;;;;;;;;;;4992934;28;20496;-85
2023/02/04 05:58:23;;;;;;;;;;;;;;;;;;4977791;28;19940;-84
2023/02/04 06:00:50;;;;;;;;;;;;;;;;;;4978586;28;20645;-86
2023/02/04 06:03:18;;;;;;;;;;;;;;;;;;4976813;28;20580;-84
2023/02/04 06:05:44;;;;;;;;;;;;;;;;;;4993266;28;19918;-83
2023/02/04 06:08:10;;;;;;;;;;;;;;;;;;4989350;28;19918;-82
2023/02/04 06:10:36;;;;;;;;;;;;;;;;;;4975472;28;20529;-85
2023/02/04 06:13:03;;;;;;;;;;;;;;;;;;4997812;28;20282;-85
2023/02/04 06:15:29;;;;;;;;;;;;;;;;;;4972503;28;19917;-87
2023/02/04 06:17:57;;;;;;;;;;;;;;;;;;4952197;28;19929;-85
2023/02/04 06:20:23;;;;;;;;;;;;;;;;;;4950047;28;20024;-85
2023/02/04 06:22:50;;;;;;;;;;;;;;;;;;4996755;28;19927;-85
2023/02/04 06:25:16;;;;;;;;;;;;;;;;;;4974522;28;20316;-85
2023/02/04 06:27:43;;;;;;;;;;;;;;;;;;4982582;28;19917;-85
2023/02/04 06:30:09;;;;;;;;;;;;;;;;;;4964949;28;20340;-83
2023/02/04 06:32:35;;;;;;;;;;;;;;;;;;4998844;28;19917;-83
2023/02/04 06:35:01;;;;;;;;;;;;;;;;;;4979733;28;19917;-84
2023/02/04 06:37:28;;;;;;;;;;;;;;;;;;4984640;28;19928;-84
2023/02/04 06:39:56;;;;;;;;;;;;;;;;;;4982111;28;19928;-83
2023/02/04 06:42:22;;;;;;;;;;;;;;;;;;4980207;28;19945;-83
2023/02/04 06:44:49;;;;;;;;;;;;;;;;;;4979120;28;20419;-82
2023/02/04 06:47:15;;;;;;;;;;;;;;;;;;4977930;28;19917;-83
2023/02/04 06:49:41;;;;;;;;;;;;;;;;;;4991475;28;19996;-83
2023/02/04 06:52:07;;;;;;;;;;;;;;;;;;4976046;28;19918;-82
2023/02/04 06:54:34;;;;;;;;;;;;;;;;;;4971280;28;19926;-83
2023/02/04 06:57:05;;;;;;;;;;;;;;;;;;4968627;28;19991;-83
2023/02/04 06:59:34;;;;;;;;;;;;;;;;;;4964804;28;20401;-84
2023/02/04 07:02:00;;;;;;;;;;;;;;;;;;4965864;28;19996;-84
2023/02/04 07:04:26;;;;;;;;;;;;;;;;;;4979672;28;19932;-84
2023/02/04 07:06:53;;;;;;;;;;;;;;;;;;4980297;28;19917;-83
2023/02/04 07:09:19;;;;;;;;;;;;;;;;;;4973661;28;19980;-85
2023/02/04 07:11:45;;;;;;;;;;;;;;;;;;4999116;28;19957;-82
2023/02/04 07:14:11;;;;;;;;;;;;;;;;;;4978490;28;20008;-84
2023/02/04 07:16:40;;;;;;;;;;;;;;;;;;4981395;28;19926;-84
2023/02/04 07:19:06;;;;;;;;;;;;;;;;;;4977894;28;20730;-84
2023/02/04 07:21:33;;;;;;;;;;;;;;;;;;4977869;28;19925;-85
2023/02/04 07:23:59;;;;;;;;;;;;;;;;;;4985331;28;20454;-84
2023/02/04 07:26:25;;;;;;;;;;;;;;;;;;4974472;28;19999;-85
2023/02/04 07:28:51;;;;;;;;;;;;;;;;;;4979769;28;20365;-86
2023/02/04 07:31:18;;;;;;;;;;;;;;;;;;4975722;28;19926;-85
2023/02/04 07:33:44;;;;;;;;;;;;;;;;;;4969729;28;19917;-86
2023/02/04 07:36:10;;;;;;;;;;;;;;;;;;4970985;28;19921;-84
2023/02/04 07:38:36;;;;;;;;;;;;;;;;;;4967894;28;20424;-83
2023/02/04 07:41:03;;;;;;;;;;;;;;;;;;4948358;28;19922;-84
2023/02/04 07:43:29;;;;;;;;;;;;;;;;;;4968683;28;20297;-83
2023/02/04 07:45:58;;;;;;;;;;;;;;;;;;4991211;28;19921;-83
2023/02/04 07:48:27;;;;;;;;;;;;;;;;;;4971520;28;19953;-83
2023/02/04 07:50:56;;;;;;;;;;;;;;;;;;4963010;28;19953;-84
2023/02/04 07:53:22;;;;;;;;;;;;;;;;;;4988664;28;19928;-83
2023/02/04 07:55:48;;;;;;;;;;;;;;;;;;4979035;28;20289;-80
2023/02/04 07:58:15;;;;;;;;;;;;;;;;;;4974252;28;19973;-81
2023/02/04 08:00:41;;;;;;;;;;;;;;;;;;4980179;28;19945;-83
2023/02/04 08:03:07;;;;;;;;;;;;;;;;;;4976426;28;19925;-82
2023/02/04 08:05:33;;;;;;;;;;;;;;;;;;4992911;28;19925;-81
2023/02/04 08:08:00;;;;;;;;;;;;;;;;;;4970782;28;19922;-82
2023/02/04 08:10:27;;;;;;;;;;;;;;;;;;4993846;28;19925;-82
2023/02/04 08:12:53;;;;;;;;;;;;;;;;;;4977738;28;19922;-83
2023/02/04 08:15:19;;;;;;;;;;;;;;;;;;4988117;28;19925;-82
2023/02/04 08:17:45;;;;;;;;;;;;;;;;;;4991192;28;19926;-82
2023/02/04 08:20:12;;;;;;;;;;;;;;;;;;4973214;28;19918;-81
2023/02/04 08:22:38;;;;;;;;;;;;;;;;;;4976543;28;20296;-82
2023/02/04 08:25:05;;;;;;;;;;;;;;;;;;4995513;28;20661;-81
2023/02/04 08:27:31;;;;;;;;;;;;;;;;;;4974662;28;19924;-81
2023/02/04 08:29:57;;;;;;;;;;;;;;;;;;4993456;28;19918;-82
2023/02/04 08:32:25;;;;;;;;;;;;;;;;;;4977409;28;20004;-82
2023/02/04 08:34:51;;;;;;;;;;;;;;;;;;4994598;28;19949;-82
2023/02/04 08:37:18;;;;;;;;;;;;;;;;;;4976342;28;19917;-81
2023/02/04 08:39:45;;;;;;;;;;;;;;;;;;4992999;28;19976;-81
2023/02/04 08:42:11;;;;;;;;;;;;;;;;;;4965024;28;20293;-81
2023/02/04 08:44:37;;;;;;;;;;;;;;;;;;4991483;28;20024;-79
2023/02/04 08:47:03;;;;;;;;;;;;;;;;;;4977311;28;20751;-78
2023/02/04 08:49:30;;;;;;;;;;;;;;;;;;4970759;28;20369;-78
2023/02/04 08:51:56;;;;;;;;;;;;;;;;;;4986400;28;19980;-78
2023/02/04 08:54:22;;;;;;;;;;;;;;;;;;4980740;28;19997;-79
2023/02/04 08:56:48;;;;;;;;;;;;;;;;;;4979840;28;20331;-78
2023/02/04 08:59:15;;;;;;;;;;;;;;;;;;4981444;28;19922;-78
2023/02/04 09:01:41;;;;;;;;;;;;;;;;;;4971404;28;19921;-78
2023/02/04 09:04:07;;;;;;;;;;;;;;;;;;4983404;28;19937;-78
2023/02/04 09:06:34;;;;;;;;;;;;;;;;;;4974486;28;19925;-79
2023/02/04 09:09:00;;;;;;;;;;;;;;;;;;4976045;28;19968;-76
2023/02/04 09:11:26;;;;;;;;;;;;;;;;;;4992944;28;20352;-77
2023/02/04 09:13:54;;;;;;;;;;;;;;;;;;4974933;28;19977;-75
2023/02/04 09:16:20;;;;;;;;;;;;;;;;;;4971084;28;19933;-78
2023/02/04 09:18:47;;;;;;;;;;;;;;;;;;4979812;28;19933;-78
2023/02/04 09:21:13;;;;;;;;;;;;;;;;;;4981562;28;19918;-79
2023/02/04 09:23:39;;;;;;;;;;;;;;;;;;4987538;28;19926;-80
2023/02/04 09:26:08;;;;;;;;;;;;;;;;;;4967003;28;19941;-80
2023/02/04 09:28:35;;;;;;;;;;;;;;;;;;4971883;28;19997;-78
2023/02/04 09:31:01;;;;;;;;;;;;;;;;;;4965670;28;19918;-80
2023/02/04 09:33:33;;;;;;;;;;;;;;;;;;4984138;28;20639;-79
2023/02/04 09:35:59;;;;;;;;;;;;;;;;;;4974820;28;20381;-77
2023/02/04 09:38:26;;;;;;;;;;;;;;;;;;4987657;28;19968;-78
2023/02/04 09:40:52;;;;;;;;;;;;;;;;;;4965445;28;19923;-79
2023/02/04 09:43:18;;;;;;;;;;;;;;;;;;4984987;28;19929;-78
2023/02/04 09:45:44;;;;;;;;;;;;;;;;;;4966490;28;19944;-78
2023/02/04 09:48:10;;;;;;;;;;;;;;;;;;4987319;28;20289;-78
2023/02/04 09:50:37;;;;;;;;;;;;;;;;;;4969654;28;20020;-79
2023/02/04 09:53:03;;;;;;;;;;;;;;;;;;4992489;28;20217;-78
2023/02/04 09:55:29;;;;;;;;;;;;;;;;;;4986301;28;19925;-77
2023/02/04 09:57:56;;;;;;;;;;;;;;;;;;4973000;28;19929;-77
2023/02/04 10:00:22;;;;;;;;;;;;;;;;;;4974760;28;19957;-76
2023/02/04 10:02:48;;;;;;;;;;;;;;;;;;5000595;28;19933;-77
2023/02/04 10:05:14;;;;;;;;;;;;;;;;;;4996650;28;19937;-79
2023/02/04 10:07:41;;;;;;;;;;;;;;;;;;4968704;28;19957;-78
2023/02/04 10:10:07;;;;;;;;;;;;;;;;;;4969530;28;19925;-76
2023/02/04 10:12:34;;;;;;;;;;;;;;;;;;4960436;28;19921;-79
2023/02/04 10:15:02;;;;;;;;;;;;;;;;;;4978114;28;19960;-78
2023/02/04 10:17:28;;;;;;;;;;;;;;;;;;4974860;28;20028;-78
2023/02/04 10:20:04;;;;;;;;;;;;;;;;;;4970715;28;19922;-78
2023/02/04 10:22:35;;;;;;;;;;;;;;;;;;4979331;28;19922;-79
2023/02/04 10:25:01;;;;;;;;;;;;;;;;;;4975626;28;20601;-79
2023/02/04 10:27:27;;;;;;;;;;;;;;;;;;4996749;28;20229;-79
2023/02/04 10:29:54;;;;;;;;;;;;;;;;;;4993795;28;19918;-78
2023/02/04 10:32:26;;;;;;;;;;;;;;;;;;4982892;28;20019;-78
2023/02/04 10:34:52;;;;;;;;;;;;;;;;;;4951588;28;20297;-78
2023/02/04 10:37:19;;;;;;;;;;;;;;;;;;4975529;28;20690;-79
2023/02/04 10:39:45;;;;;;;;;;;;;;;;;;4977997;28;20019;-78
2023/02/04 10:42:11;;;;;;;;;;;;;;;;;;4976956;28;19926;-77
2023/02/04 10:44:39;;;;;;;;;;;;;;;;;;4978817;28;19921;-78
2023/02/04 10:47:05;;;;;;;;;;;;;;;;;;4985985;28;20401;-79
2023/02/04 10:49:31;;;;;;;;;;;;;;;;;;4991678;28;19917;-78
2023/02/04 10:51:57;;;;;;;;;;;;;;;;;;4973984;28;19922;-78
2023/02/04 10:54:30;;;;;;;;;;;;;;;;;;4976015;28;19953;-79
2023/02/04 10:56:57;;;;;;;;;;;;;;;;;;4978489;28;19921;-78
2023/02/04 10:59:25;;;;;;;;;;;;;;;;;;4994083;28;19924;-78
2023/02/04 11:01:51;;;;;;;;;;;;;;;;;;4983788;28;19930;-79
2023/02/04 11:04:18;;;;;;;;;;;;;;;;;;4979810;28;20088;-78
2023/02/04 11:06:44;;;;;;;;;;;;;;;;;;4995855;28;19960;-79
2023/02/04 11:09:10;;;;;;;;;;;;;;;;;;4975223;28;19937;-79
2023/02/04 11:11:36;;;;;;;;;;;;;;;;;;4990146;28;20346;-78
2023/02/04 11:14:03;;;;;;;;;;;;;;;;;;4976725;28;19924;-78
2023/02/04 11:16:30;;;;;;;;;;;;;;;;;;4987697;28;19995;-78
2023/02/04 11:18:57;;;;;;;;;;;;;;;;;;4991975;28;19925;-78
2023/02/04 11:21:23;;;;;;;;;;;;;;;;;;4995083;28;19977;-78
2023/02/04 11:23:49;;;;;;;;;;;;;;;;;;4961184;28;20047;-79
2023/02/04 11:26:17;;;;;;;;;;;;;;;;;;4983440;28;19918;-80
2023/02/04 11:28:44;;;;;;;;;;;;;;;;;;4993083;28;19917;-78
2023/02/04 11:31:10;;;;;;;;;;;;;;;;;;4983375;28;20492;-80
2023/02/04 11:33:37;;;;;;;;;;;;;;;;;;4990346;28;19917;-79
2023/02/04 11:36:03;;;;;;;;;;;;;;;;;;4990080;28;19976;-79
2023/02/04 11:38:30;;;;;;;;;;;;;;;;;;4972312;28;19953;-80
2023/02/04 11:40:56;;;;;;;;;;;;;;;;;;4986502;28;19949;-81
2023/02/04 11:43:22;;;;;;;;;;;;;;;;;;4974630;28;19918;-81
2023/02/04 11:45:49;;;;;;;;;;;;;;;;;;4987966;28;19925;-81
2023/02/04 11:48:15;;;;;;;;;;;;;;;;;;4972391;28;20490;-78
2023/02/04 11:50:41;;;;;;;;;;;;;;;;;;4991860;28;19922;-79
2023/02/04 11:53:07;;;;;;;;;;;;;;;;;;4995454;28;20641;-79
2023/02/04 11:55:34;;;;;;;;;;;;;;;;;;4991654;28;19921;-81
2023/02/04 11:58:00;;;;;;;;;;;;;;;;;;4992301;28;19928;-78
2023/02/04 12:00:26;;;;;;;;;;;;;;;;;;4994396;28;19922;-80
2023/02/04 12:02:53;;;;;;;;;;;;;;;;;;4977730;28;19928;-79
2023/02/04 12:05:19;;;;;;;;;;;;;;;;;;4985255;28;19969;-78
2023/02/04 12:07:45;;;;;;;;;;;;;;;;;;4976579;28;19928;-79
2023/02/04 12:10:11;;;;;;;;;;;;;;;;;;4975868;28;19921;-80
2023/02/04 12:12:37;;;;;;;;;;;;;;;;;;4976389;28;19923;-79
2023/02/04 12:15:04;;;;;;;;;;;;;;;;;;4975073;28;19921;-80
2023/02/04 12:17:30;;;;;;;;;;;;;;;;;;4986880;28;19948;-78
2023/02/04 12:19:56;;;;;;;;;;;;;;;;;;4973353;28;20015;-79
2023/02/04 12:22:23;;;;;;;;;;;;;;;;;;4973381;28;19921;-79
2023/02/04 12:24:51;;;;;;;;;;;;;;;;;;4987735;28;19929;-79
2023/02/04 12:27:17;;;;;;;;;;;;;;;;;;4974427;28;19973;-78
2023/02/04 12:29:44;;;;;;;;;;;;;;;;;;4985693;28;19972;-78
2023/02/04 12:32:10;;;;;;;;;;;;;;;;;;4970426;28;19981;-78
2023/02/04 12:34:36;;;;;;;;;;;;;;;;;;4972810;28;19964;-75
2023/02/04 12:37:03;;;;;;;;;;;;;;;;;;4975680;28;19921;-78
2023/02/04 12:39:30;;;;;;;;;;;;;;;;;;4972816;28;20349;-78
2023/02/04 12:41:57;;;;;;;;;;;;;;;;;;4971045;28;19948;-77
2023/02/04 12:44:23;;;;;;;;;;;;;;;;;;4953775;28;19957;-77
2023/02/04 12:46:50;;;;;;;;;;;;;;;;;;4970689;28;19926;-77
2023/02/04 12:49:16;;;;;;;;;;;;;;;;;;4968989;28;19917;-79
2023/02/04 12:51:42;;;;;;;;;;;;;;;;;;4974655;28;19932;-80
2023/02/04 12:54:09;;;;;;;;;;;;;;;;;;4955608;28;20559;-82
2023/02/04 12:56:35;;;;;;;;;;;;;;;;;;4968066;28;20445;-79
2023/02/04 12:59:01;;;;;;;;;;;;;;;;;;4968105;28;19918;-78
2023/02/04 13:01:28;;;;;;;;;;;;;;;;;;4965044;28;19926;-79
2023/02/04 13:03:54;;;;;;;;;;;;;;;;;;4964598;28;20610;-80
2023/02/04 13:06:20;;;;;;;;;;;;;;;;;;4967081;28;19936;-81
2023/02/04 13:08:46;;;;;;;;;;;;;;;;;;4970937;28;19929;-79
2023/02/04 13:11:13;;;;;;;;;;;;;;;;;;4988896;28;20300;-78
2023/02/04 13:13:39;;;;;;;;;;;;;;;;;;4974752;28;20300;-78
2023/02/04 13:16:05;;;;;;;;;;;;;;;;;;4967844;28;19921;-79
2023/02/04 13:18:32;;;;;;;;;;;;;;;;;;4985685;28;19925;-80
2023/02/04 13:20:59;;;;;;;;;;;;;;;;;;4992077;28;20368;-81
2023/02/04 13:23:25;;;;;;;;;;;;;;;;;;4988508;28;19922;-80
2023/02/04 13:25:51;;;;;;;;;;;;;;;;;;4971426;28;20266;-81
2023/02/04 13:28:18;;;;;;;;;;;;;;;;;;4978266;28;19921;-80
2023/02/04 13:30:44;;;;;;;;;;;;;;;;;;4989916;28;20408;-81
2023/02/04 13:33:10;;;;;;;;;;;;;;;;;;4994386;28;19918;-81
2023/02/04 13:35:37;;;;;;;;;;;;;;;;;;4974497;28;19918;-80
2023/02/04 13:38:03;;;;;;;;;;;;;;;;;;4982018;28;20471;-84
2023/02/04 13:40:29;;;;;;;;;;;;;;;;;;4994218;28;19932;-82
2023/02/04 13:42:56;;;;;;;;;;;;;;;;;;4995544;28;19925;-81
2023/02/04 13:45:22;;;;;;;;;;;;;;;;;;4994303;28;19933;-82
2023/02/04 13:47:48;;;;;;;;;;;;;;;;;;4997066;28;20755;-82
2023/02/04 13:50:15;;;;;;;;;;;;;;;;;;4981463;28;19922;-82
2023/02/04 13:52:41;;;;;;;;;;;;;;;;;;4983337;28;19917;-79
2023/02/04 13:55:07;;;;;;;;;;;;;;;;;;4974785;28;20008;-82
2023/02/04 13:57:36;;;;;;;;;;;;;;;;;;4995020;28;20274;-82
2023/02/04 14:00:02;;;;;;;;;;;;;;;;;;4992466;28;20000;-81
2023/02/04 14:02:28;;;;;;;;;;;;;;;;;;4992816;28;19932;-82
2023/02/04 14:04:56;;;;;;;;;;;;;;;;;;4991331;28;19933;-82
2023/02/04 14:07:22;;;;;;;;;;;;;;;;;;4999548;28;19928;-83
2023/02/04 14:09:49;;;;;;;;;;;;;;;;;;4980120;28;19932;-79
2023/02/04 14:12:15;;;;;;;;;;;;;;;;;;4981318;28;19971;-81
2023/02/04 14:14:41;;;;;;;;;;;;;;;;;;4981700;28;19928;-79
2023/02/04 14:17:08;;;;;;;;;;;;;;;;;;4999490;28;20007;-80
2023/02/04 14:19:34;;;;;;;;;;;;;;;;;;4995694;28;19925;-79
2023/02/04 14:22:01;;;;;;;;;;;;;;;;;;4994077;28;19972;-84
2023/02/04 14:24:27;;;;;;;;;;;;;;;;;;4976330;28;19922;-81
2023/02/04 14:26:55;;;;;;;;;;;;;;;;;;4962359;28;19922;-83
2023/02/04 14:29:21;;;;;;;;;;;;;;;;;;4979814;28;19918;-81
2023/02/04 14:31:47;;;;;;;;;;;;;;;;;;4977751;28;19917;-81
2023/02/04 14:34:13;;;;;;;;;;;;;;;;;;4996582;28;19926;-82
2023/02/04 14:36:39;;;;;;;;;;;;;;;;;;4964252;28;19964;-80
2023/02/04 14:39:06;;;;;;;;;;;;;;;;;;4992181;28;19995;-81
2023/02/04 14:41:32;;;;;;;;;;;;;;;;;;4977477;28;20320;-81
2023/02/04 14:43:58;;;;;;;;;;;;;;;;;;4972031;28;19937;-82
2023/02/04 14:46:25;;;;;;;;;;;;;;;;;;4977488;28;19922;-81
2023/02/04 14:48:51;;;;;;;;;;;;;;;;;;4990877;28;19928;-81
2023/02/04 14:51:18;;;;;;;;;;;;;;;;;;4990524;28;19918;-82
2023/02/04 14:53:45;;;;;;;;;;;;;;;;;;4993891;28;19972;-80
2023/02/04 14:56:12;;;;;;;;;;;;;;;;;;4995716;28;19929;-81
2023/02/04 14:58:38;;;;;;;;;;;;;;;;;;4992081;28;19929;-80
2023/02/04 15:01:04;;;;;;;;;;;;;;;;;;4994142;28;20452;-81
2023/02/04 15:03:30;;;;;;;;;;;;;;;;;;4994007;28;19935;-81
2023/02/04 15:05:57;;;;;;;;;;;;;;;;;;4971355;28;19926;-81
2023/02/04 15:08:23;;;;;;;;;;;;;;;;;;4977264;28;19993;-81
2023/02/04 15:10:49;;;;;;;;;;;;;;;;;;4976260;28;19928;-80
2023/02/04 15:13:15;;;;;;;;;;;;;;;;;;4979837;28;19928;-82
2023/02/04 15:15:42;;;;;;;;;;;;;;;;;;4995396;28;19917;-80
2023/02/04 15:18:08;;;;;;;;;;;;;;;;;;4994911;28;19980;-82
2023/02/04 15:20:34;;;;;;;;;;;;;;;;;;4995622;28;20014;-82
2023/02/04 15:23:01;;;;;;;;;;;;;;;;;;4994508;28;19952;-82
2023/02/04 15:25:27;;;;;;;;;;;;;;;;;;4995591;28;20003;-81
2023/02/04 15:27:53;;;;;;;;;;;;;;;;;;4992415;28;19922;-81
2023/02/04 15:30:19;;;;;;;;;;;;;;;;;;4990587;28;19926;-81
2023/02/04 15:32:46;;;;;;;;;;;;;;;;;;4969803;28;19991;-80
2023/02/04 15:35:12;;;;;;;;;;;;;;;;;;4973345;28;19917;-80
2023/02/04 15:37:38;;;;;;;;;;;;;;;;;;4971064;28;19928;-79
2023/02/04 15:40:05;;;;;;;;;;;;;;;;;;4992634;28;20554;-79
2023/02/04 15:42:32;;;;;;;;;;;;;;;;;;4970141;28;20013;-79
2023/02/04 15:44:58;;;;;;;;;;;;;;;;;;4979278;28;20019;-78
2023/02/04 15:47:24;;;;;;;;;;;;;;;;;;4964440;28;19996;-80
2023/02/04 15:49:51;;;;;;;;;;;;;;;;;;4977896;28;19922;-80
2023/02/04 15:52:17;;;;;;;;;;;;;;;;;;4976752;28;19960;-82
2023/02/04 15:54:44;;;;;;;;;;;;;;;;;;4991899;28;19999;-78
2023/02/04 15:57:14;;;;;;;;;;;;;;;;;;4997953;28;19921;-80
2023/02/04 15:59:40;;;;;;;;;;;;;;;;;;4969742;28;19917;-79
2023/02/04 16:02:06;;;;;;;;;;;;;;;;;;4966600;28;19929;-80
2023/02/04 16:04:32;;;;;;;;;;;;;;;;;;4969604;28;19934;-81
2023/02/04 16:06:59;;;;;;;;;;;;;;;;;;4969129;28;20011;-80
2023/02/04 16:09:25;;;;;;;;;;;;;;;;;;4987895;28;19976;-80
2023/02/04 16:11:52;;;;;;;;;;;;;;;;;;4988220;28;20055;-79
2023/02/04 16:14:18;;;;;;;;;;;;;;;;;;4975724;28;19922;-79
2023/02/04 16:16:47;;;;;;;;;;;;;;;;;;4989034;28;19929;-80
2023/02/04 16:19:13;;;;;;;;;;;;;;;;;;4989192;28;19922;-80
2023/02/04 16:21:39;;;;;;;;;;;;;;;;;;4986636;28;20265;-80
2023/02/04 16:24:06;;;;;;;;;;;;;;;;;;4975285;28;19935;-80
2023/02/04 16:26:32;;;;;;;;;;;;;;;;;;4966990;28;19926;-80
2023/02/04 16:28:58;;;;;;;;;;;;;;;;;;4996252;28;19925;-76
2023/02/04 16:31:24;;;;;;;;;;;;;;;;;;4972614;28;19926;-77
2023/02/04 16:33:50;;;;;;;;;;;;;;;;;;4985987;28;20331;-78
2023/02/04 16:36:17;;;;;;;;;;;;;;;;;;4991522;28;19921;-78
2023/02/04 16:38:44;;;;;;;;;;;;;;;;;;4973099;28;19921;-78
2023/02/04 16:41:10;;;;;;;;;;;;;;;;;;4989244;28;19921;-78